Terminal Aerodrome Forecast
Issued by NWS

Home | Current Version | Previous Version | Text Only | Print | Product List | Glossary On
Versions: 1 2 3 4 5 6 7 8 9 10 11 12
638
FTUS45 KABQ 190540
TAFTCC
TAF
KTCC 190540Z 1906/2006 VRB05KT P6SM BKN250
     FM191700 19008KT P6SM BKN200
     FM192200 20012G20KT P6SM BKN110
     FM200200 20009KT P6SM VCSH OVC080
      AMD NOT SKED=

USA.gov is the U.S. government's official web portal to all federal, state and local government web resources and services.